sensor_id;sensor_type;location;lat;lon;timestamp;temperature;humidity
12303;DHT22;6214;48.012;7.862;2022-09-09T00:04:38;20.30;99.90
12303;DHT22;6214;48.012;7.862;2022-09-09T00:07:19;20.30;99.90
12303;DHT22;6214;48.012;7.862;2022-09-09T00:15:20;20.30;99.90
12303;DHT22;6214;48.012;7.862;2022-09-09T00:17:53;20.30;99.90
12303;DHT22;6214;48.012;7.862;2022-09-09T00:25:59;20.20;99.90
12303;DHT22;6214;48.012;7.862;2022-09-09T00:28:30;20.00;99.90
12303;DHT22;6214;48.012;7.862;2022-09-09T00:31:12;20.00;99.90
12303;DHT22;6214;48.012;7.862;2022-09-09T00:33:40;20.20;99.90
12303;DHT22;6214;48.012;7.862;2022-09-09T00:36:18;20.20;99.90
12303;DHT22;6214;48.012;7.862;2022-09-09T00:38:53;20.20;99.90
12303;DHT22;6214;48.012;7.862;2022-09-09T00:44:32;20.10;99.90
12303;DHT22;6214;48.012;7.862;2022-09-09T00:47:08;20.10;99.90
12303;DHT22;6214;48.012;7.862;2022-09-09T00:57:29;20.10;99.90
12303;DHT22;6214;48.012;7.862;2022-09-09T01:07:58;20.10;99.90
12303;DHT22;6214;48.012;7.862;2022-09-09T01:10:42;20.00;99.90
12303;DHT22;6214;48.012;7.862;2022-09-09T01:15:54;20.10;99.90
12303;DHT22;6214;48.012;7.862;2022-09-09T01:18:30;20.00;99.90
12303;DHT22;6214;48.012;7.862;2022-09-09T01:26:46;19.80;99.90
12303;DHT22;6214;48.012;7.862;2022-09-09T01:29:18;19.80;99.90
12303;DHT22;6214;48.012;7.862;2022-09-09T01:31:53;19.90;99.90
12303;DHT22;6214;48.012;7.862;2022-09-09T01:34:21;19.90;99.90
12303;DHT22;6214;48.012;7.862;2022-09-09T01:36:57;19.90;99.90
12303;DHT22;6214;48.012;7.862;2022-09-09T01:39:25;19.90;99.90
12303;DHT22;6214;48.012;7.862;2022-09-09T01:41:53;19.80;99.90
12303;DHT22;6214;48.012;7.862;2022-09-09T01:44:22;19.70;99.90
12303;DHT22;6214;48.012;7.862;2022-09-09T01:46:49;19.70;99.90
12303;DHT22;6214;48.012;7.862;2022-09-09T01:49:17;19.60;99.90
12303;DHT22;6214;48.012;7.862;2022-09-09T01:51:47;19.60;99.90
12303;DHT22;6214;48.012;7.862;2022-09-09T01:54:15;19.60;99.90
12303;DHT22;6214;48.012;7.862;2022-09-09T02:04:53;19.60;99.90
12303;DHT22;6214;48.012;7.862;2022-09-09T02:07:40;19.60;99.90
12303;DHT22;6214;48.012;7.862;2022-09-09T02:10:21;19.60;99.90
12303;DHT22;6214;48.012;7.862;2022-09-09T02:12:55;19.50;99.90
12303;DHT22;6214;48.012;7.862;2022-09-09T02:15:28;19.50;99.90
12303;DHT22;6214;48.012;7.862;2022-09-09T02:17:57;19.30;99.90
12303;DHT22;6214;48.012;7.862;2022-09-09T02:20:25;19.40;99.90
12303;DHT22;6214;48.012;7.862;2022-09-09T02:22:59;19.40;99.90
12303;DHT22;6214;48.012;7.862;2022-09-09T02:25:29;19.30;99.90
12303;DHT22;6214;48.012;7.862;2022-09-09T02:27:57;19.30;99.90
12303;DHT22;6214;48.012;7.862;2022-09-09T02:30:29;19.40;99.90
12303;DHT22;6214;48.012;7.862;2022-09-09T02:33:00;19.40;99.90
12303;DHT22;6214;48.012;7.862;2022-09-09T02:35:29;19.40;99.90
12303;DHT22;6214;48.012;7.862;2022-09-09T02:38:00;19.30;99.90
12303;DHT22;6214;48.012;7.862;2022-09-09T02:40:28;19.40;99.90
12303;DHT22;6214;48.012;7.862;2022-09-09T02:42:55;19.30;99.90
12303;DHT22;6214;48.012;7.862;2022-09-09T02:45:29;19.30;99.90
12303;DHT22;6214;48.012;7.862;2022-09-09T02:48:21;19.40;99.90
12303;DHT22;6214;48.012;7.862;2022-09-09T02:51:15;19.40;99.90
12303;DHT22;6214;48.012;7.862;2022-09-09T02:56:52;19.60;99.90
12303;DHT22;6214;48.012;7.862;2022-09-09T02:59:25;19.60;99.90
12303;DHT22;6214;48.012;7.862;2022-09-09T03:01:53;19.50;99.90
12303;DHT22;6214;48.012;7.862;2022-09-09T03:04:20;19.60;99.90
12303;DHT22;6214;48.012;7.862;2022-09-09T03:06:47;19.60;99.90
12303;DHT22;6214;48.012;7.862;2022-09-09T03:09:14;19.50;99.90
12303;DHT22;6214;48.012;7.862;2022-09-09T03:11:41;19.40;99.90
12303;DHT22;6214;48.012;7.862;2022-09-09T03:14:08;19.40;99.90
12303;DHT22;6214;48.012;7.862;2022-09-09T03:16:35;19.50;99.90
12303;DHT22;6214;48.012;7.862;2022-09-09T03:19:02;19.50;99.90
12303;DHT22;6214;48.012;7.862;2022-09-09T03:21:29;19.50;99.90
12303;DHT22;6214;48.012;7.862;2022-09-09T03:23:56;19.50;99.90
12303;DHT22;6214;48.012;7.862;2022-09-09T03:26:24;19.60;99.90
12303;DHT22;6214;48.012;7.862;2022-09-09T03:28:51;19.60;99.90
12303;DHT22;6214;48.012;7.862;2022-09-09T03:31:18;19.70;99.90
12303;DHT22;6214;48.012;7.862;2022-09-09T03:33:46;19.80;99.90
12303;DHT22;6214;48.012;7.862;2022-09-09T03:36:13;19.80;99.90
12303;DHT22;6214;48.012;7.862;2022-09-09T03:38:41;19.80;99.90
12303;DHT22;6214;48.012;7.862;2022-09-09T03:41:08;19.90;99.90
12303;DHT22;6214;48.012;7.862;2022-09-09T03:43:35;19.90;99.90
12303;DHT22;6214;48.012;7.862;2022-09-09T03:46:03;19.90;99.90
12303;DHT22;6214;48.012;7.862;2022-09-09T03:48:30;20.00;99.90
12303;DHT22;6214;48.012;7.862;2022-09-09T03:50:57;20.00;99.90
12303;DHT22;6214;48.012;7.862;2022-09-09T03:53:28;20.10;99.90
12303;DHT22;6214;48.012;7.862;2022-09-09T03:55:56;20.10;99.90
12303;DHT22;6214;48.012;7.862;2022-09-09T03:58:27;20.10;99.90
12303;DHT22;6214;48.012;7.862;2022-09-09T04:01:00;20.10;99.90
12303;DHT22;6214;48.012;7.862;2022-09-09T04:03:28;20.10;99.90
12303;DHT22;6214;48.012;7.862;2022-09-09T04:05:58;20.00;99.90
12303;DHT22;6214;48.012;7.862;2022-09-09T04:08:25;20.10;99.90
12303;DHT22;6214;48.012;7.862;2022-09-09T04:10:53;20.10;99.90
12303;DHT22;6214;48.012;7.862;2022-09-09T04:13:25;20.10;99.90
12303;DHT22;6214;48.012;7.862;2022-09-09T04:15:54;20.10;99.90
12303;DHT22;6214;48.012;7.862;2022-09-09T04:18:22;20.10;99.90
12303;DHT22;6214;48.012;7.862;2022-09-09T04:20:51;20.10;99.90
12303;DHT22;6214;48.012;7.862;2022-09-09T04:23:19;20.10;99.90
12303;DHT22;6214;48.012;7.862;2022-09-09T04:25:48;20.20;99.90
12303;DHT22;6214;48.012;7.862;2022-09-09T04:28:16;20.20;99.90
12303;DHT22;6214;48.012;7.862;2022-09-09T04:30:44;20.30;99.90
12303;DHT22;6214;48.012;7.862;2022-09-09T04:33:12;20.20;99.90
12303;DHT22;6214;48.012;7.862;2022-09-09T04:35:47;20.20;99.90
12303;DHT22;6214;48.012;7.862;2022-09-09T04:38:16;20.20;99.90
12303;DHT22;6214;48.012;7.862;2022-09-09T04:40:46;20.30;99.90
12303;DHT22;6214;48.012;7.862;2022-09-09T04:43:14;20.40;99.90
12303;DHT22;6214;48.012;7.862;2022-09-09T04:45:42;20.30;99.90
12303;DHT22;6214;48.012;7.862;2022-09-09T04:48:09;20.30;99.90
12303;DHT22;6214;48.012;7.862;2022-09-09T04:50:39;20.30;99.90
12303;DHT22;6214;48.012;7.862;2022-09-09T04:53:07;20.30;99.90
12303;DHT22;6214;48.012;7.862;2022-09-09T04:55:34;20.30;99.90
12303;DHT22;6214;48.012;7.862;2022-09-09T04:58:05;20.30;99.90
12303;DHT22;6214;48.012;7.862;2022-09-09T05:00:36;20.30;99.90
12303;DHT22;6214;48.012;7.862;2022-09-09T05:03:07;20.20;99.90
12303;DHT22;6214;48.012;7.862;2022-09-09T05:05:35;20.30;99.90
12303;DHT22;6214;48.012;7.862;2022-09-09T05:08:06;20.30;99.90
12303;DHT22;6214;48.012;7.862;2022-09-09T05:10:39;20.30;99.90
12303;DHT22;6214;48.012;7.862;2022-09-09T05:13:08;20.30;99.90
12303;DHT22;6214;48.012;7.862;2022-09-09T05:15:35;20.30;99.90
12303;DHT22;6214;48.012;7.862;2022-09-09T05:18:03;20.30;99.90
12303;DHT22;6214;48.012;7.862;2022-09-09T05:20:30;20.40;99.90
12303;DHT22;6214;48.012;7.862;2022-09-09T05:22:57;20.40;99.90
12303;DHT22;6214;48.012;7.862;2022-09-09T05:25:24;20.40;99.90
12303;DHT22;6214;48.012;7.862;2022-09-09T05:27:53;20.40;99.90
12303;DHT22;6214;48.012;7.862;2022-09-09T05:30:21;20.40;99.90
12303;DHT22;6214;48.012;7.862;2022-09-09T05:32:49;20.40;99.90
12303;DHT22;6214;48.012;7.862;2022-09-09T05:35:16;20.40;99.90
12303;DHT22;6214;48.012;7.862;2022-09-09T05:37:45;20.50;99.90
12303;DHT22;6214;48.012;7.862;2022-09-09T05:40:13;20.50;99.90
12303;DHT22;6214;48.012;7.862;2022-09-09T05:42:40;20.40;99.90
12303;DHT22;6214;48.012;7.862;2022-09-09T05:45:08;20.50;99.90
12303;DHT22;6214;48.012;7.862;2022-09-09T05:47:36;20.50;99.90
12303;DHT22;6214;48.012;7.862;2022-09-09T05:50:04;20.50;99.90
12303;DHT22;6214;48.012;7.862;2022-09-09T05:52:31;20.50;99.90
12303;DHT22;6214;48.012;7.862;2022-09-09T05:54:59;20.50;99.90
12303;DHT22;6214;48.012;7.862;2022-09-09T05:57:26;20.60;99.90
12303;DHT22;6214;48.012;7.862;2022-09-09T05:59:53;20.60;99.90
12303;DHT22;6214;48.012;7.862;2022-09-09T06:02:20;20.60;99.90
12303;DHT22;6214;48.012;7.862;2022-09-09T06:04:47;20.70;99.90
12303;DHT22;6214;48.012;7.862;2022-09-09T06:07:14;20.70;99.90
12303;DHT22;6214;48.012;7.862;2022-09-09T06:09:41;20.70;99.90
12303;DHT22;6214;48.012;7.862;2022-09-09T06:12:08;20.70;99.90
12303;DHT22;6214;48.012;7.862;2022-09-09T06:14:35;20.70;99.90
12303;DHT22;6214;48.012;7.862;2022-09-09T06:17:03;20.70;99.90
12303;DHT22;6214;48.012;7.862;2022-09-09T06:19:30;20.90;99.90
12303;DHT22;6214;48.012;7.862;2022-09-09T06:21:57;21.00;99.90
12303;DHT22;6214;48.012;7.862;2022-09-09T06:24:25;21.10;99.90
12303;DHT22;6214;48.012;7.862;2022-09-09T06:26:52;21.20;99.90
12303;DHT22;6214;48.012;7.862;2022-09-09T06:29:20;21.30;99.90
12303;DHT22;6214;48.012;7.862;2022-09-09T06:31:47;21.30;99.90
12303;DHT22;6214;48.012;7.862;2022-09-09T06:34:14;21.40;99.90
12303;DHT22;6214;48.012;7.862;2022-09-09T06:36:41;21.40;99.90
12303;DHT22;6214;48.012;7.862;2022-09-09T06:39:09;21.40;99.90
12303;DHT22;6214;48.012;7.862;2022-09-09T06:41:41;21.50;99.90
12303;DHT22;6214;48.012;7.862;2022-09-09T06:44:09;21.50;99.90
12303;DHT22;6214;48.012;7.862;2022-09-09T06:46:38;21.40;99.90
12303;DHT22;6214;48.012;7.862;2022-09-09T06:49:08;21.40;99.90
12303;DHT22;6214;48.012;7.862;2022-09-09T06:51:37;21.60;99.90
12303;DHT22;6214;48.012;7.862;2022-09-09T06:54:10;21.60;99.90
12303;DHT22;6214;48.012;7.862;2022-09-09T06:56:40;21.60;99.90
12303;DHT22;6214;48.012;7.862;2022-09-09T06:59:09;21.40;99.90
12303;DHT22;6214;48.012;7.862;2022-09-09T07:01:39;21.20;99.90
12303;DHT22;6214;48.012;7.862;2022-09-09T07:04:08;21.20;99.90
12303;DHT22;6214;48.012;7.862;2022-09-09T07:06:38;21.40;99.90
12303;DHT22;6214;48.012;7.862;2022-09-09T07:09:08;21.50;99.90
12303;DHT22;6214;48.012;7.862;2022-09-09T07:11:53;21.60;99.90
12303;DHT22;6214;48.012;7.862;2022-09-09T07:14:20;21.80;99.90
12303;DHT22;6214;48.012;7.862;2022-09-09T07:16:48;22.00;99.90
12303;DHT22;6214;48.012;7.862;2022-09-09T07:19:16;21.90;99.90
12303;DHT22;6214;48.012;7.862;2022-09-09T07:21:43;21.90;99.90
12303;DHT22;6214;48.012;7.862;2022-09-09T07:24:11;22.00;99.90
12303;DHT22;6214;48.012;7.862;2022-09-09T07:26:39;22.40;99.90
12303;DHT22;6214;48.012;7.862;2022-09-09T07:29:07;22.50;99.90
12303;DHT22;6214;48.012;7.862;2022-09-09T07:31:37;22.60;99.90
12303;DHT22;6214;48.012;7.862;2022-09-09T07:34:04;22.70;99.90
12303;DHT22;6214;48.012;7.862;2022-09-09T07:36:36;22.80;99.90
12303;DHT22;6214;48.012;7.862;2022-09-09T07:39:10;23.00;99.90
12303;DHT22;6214;48.012;7.862;2022-09-09T07:41:45;23.20;99.90
12303;DHT22;6214;48.012;7.862;2022-09-09T07:44:21;23.20;99.90
12303;DHT22;6214;48.012;7.862;2022-09-09T07:46:49;23.10;99.90
12303;DHT22;6214;48.012;7.862;2022-09-09T07:49:16;23.50;99.90
12303;DHT22;6214;48.012;7.862;2022-09-09T07:51:51;23.50;99.90
12303;DHT22;6214;48.012;7.862;2022-09-09T07:54:19;23.90;99.90
12303;DHT22;6214;48.012;7.862;2022-09-09T07:56:47;23.70;99.90
12303;DHT22;6214;48.012;7.862;2022-09-09T07:59:14;23.30;99.90
12303;DHT22;6214;48.012;7.862;2022-09-09T08:01:44;23.00;99.90
12303;DHT22;6214;48.012;7.862;2022-09-09T08:04:17;23.00;99.90
12303;DHT22;6214;48.012;7.862;2022-09-09T08:06:52;22.60;99.90
12303;DHT22;6214;48.012;7.862;2022-09-09T08:09:21;22.50;99.90
12303;DHT22;6214;48.012;7.862;2022-09-09T08:11:48;22.60;99.90
12303;DHT22;6214;48.012;7.862;2022-09-09T08:14:15;23.00;99.90
12303;DHT22;6214;48.012;7.862;2022-09-09T08:16:44;23.40;99.90
12303;DHT22;6214;48.012;7.862;2022-09-09T08:19:12;23.60;99.90
12303;DHT22;6214;48.012;7.862;2022-09-09T08:21:43;23.70;99.90
12303;DHT22;6214;48.012;7.862;2022-09-09T08:24:11;23.70;99.90
12303;DHT22;6214;48.012;7.862;2022-09-09T08:26:46;23.80;99.90
12303;DHT22;6214;48.012;7.862;2022-09-09T08:29:15;23.90;99.90
12303;DHT22;6214;48.012;7.862;2022-09-09T08:31:45;23.80;99.90
12303;DHT22;6214;48.012;7.862;2022-09-09T08:34:14;24.20;99.90
12303;DHT22;6214;48.012;7.862;2022-09-09T08:36:43;24.20;99.90
12303;DHT22;6214;48.012;7.862;2022-09-09T08:39:13;23.90;99.90
12303;DHT22;6214;48.012;7.862;2022-09-09T08:47:11;23.90;99.90
12303;DHT22;6214;48.012;7.862;2022-09-09T08:50:06;23.80;99.90
12303;DHT22;6214;48.012;7.862;2022-09-09T08:55:27;23.90;99.90
12303;DHT22;6214;48.012;7.862;2022-09-09T08:57:58;23.80;99.90
12303;DHT22;6214;48.012;7.862;2022-09-09T09:00:36;23.80;99.90
12303;DHT22;6214;48.012;7.862;2022-09-09T09:11:26;23.50;99.90
12303;DHT22;6214;48.012;7.862;2022-09-09T09:17:04;23.50;99.90
12303;DHT22;6214;48.012;7.862;2022-09-09T09:19:33;23.10;99.90
12303;DHT22;6214;48.012;7.862;2022-09-09T09:22:20;22.90;99.90
12303;DHT22;6214;48.012;7.862;2022-09-09T09:27:43;23.70;99.90
12303;DHT22;6214;48.012;7.862;2022-09-09T09:30:17;24.10;99.90
12303;DHT22;6214;48.012;7.862;2022-09-09T09:35:49;24.60;99.90
12303;DHT22;6214;48.012;7.862;2022-09-09T09:38:19;24.40;99.90
12303;DHT22;6214;48.012;7.862;2022-09-09T09:41:08;24.50;99.90
12303;DHT22;6214;48.012;7.862;2022-09-09T09:43:37;24.80;99.90
12303;DHT22;6214;48.012;7.862;2022-09-09T09:46:22;24.70;99.90
12303;DHT22;6214;48.012;7.862;2022-09-09T09:49:02;24.60;99.90
12303;DHT22;6214;48.012;7.862;2022-09-09T09:51:31;24.50;99.90
12303;DHT22;6214;48.012;7.862;2022-09-09T09:56:42;24.30;99.90
12303;DHT22;6214;48.012;7.862;2022-09-09T09:59:22;24.30;99.90
12303;DHT22;6214;48.012;7.862;2022-09-09T10:02:22;24.40;99.90
12303;DHT22;6214;48.012;7.862;2022-09-09T10:05:04;24.50;99.90
12303;DHT22;6214;48.012;7.862;2022-09-09T10:07:31;24.60;99.90
12303;DHT22;6214;48.012;7.862;2022-09-09T10:10:00;24.50;99.90
12303;DHT22;6214;48.012;7.862;2022-09-09T10:15:35;24.70;99.90
12303;DHT22;6214;48.012;7.862;2022-09-09T10:24:07;25.30;99.90
12303;DHT22;6214;48.012;7.862;2022-09-09T10:26:45;25.30;99.90
12303;DHT22;6214;48.012;7.862;2022-09-09T10:35:02;25.30;99.90
12303;DHT22;6214;48.012;7.862;2022-09-09T10:37:50;24.90;99.90
12303;DHT22;6214;48.012;7.862;2022-09-09T10:40:58;24.50;99.90
12303;DHT22;6214;48.012;7.862;2022-09-09T10:58:03;23.00;99.90
12303;DHT22;6214;48.012;7.862;2022-09-09T11:00:24;23.30;99.90
12303;DHT22;6214;48.012;7.862;2022-09-09T11:02:57;23.70;99.90
12303;DHT22;6214;48.012;7.862;2022-09-09T11:05:44;24.00;99.90
12303;DHT22;6214;48.012;7.862;2022-09-09T11:08:21;24.20;99.90
12303;DHT22;6214;48.012;7.862;2022-09-09T11:11:20;24.20;99.90
12303;DHT22;6214;48.012;7.862;2022-09-09T11:16:36;24.00;99.90
12303;DHT22;6214;48.012;7.862;2022-09-09T11:19:34;23.80;99.90
12303;DHT22;6214;48.012;7.862;2022-09-09T11:22:12;23.70;99.90
12303;DHT22;6214;48.012;7.862;2022-09-09T11:25:05;23.50;99.90
12303;DHT22;6214;48.012;7.862;2022-09-09T11:27:50;23.40;99.90
12303;DHT22;6214;48.012;7.862;2022-09-09T11:30:33;23.30;99.90
12303;DHT22;6214;48.012;7.862;2022-09-09T11:36:43;23.70;99.90
12303;DHT22;6214;48.012;7.862;2022-09-09T11:44:40;24.40;99.90
12303;DHT22;6214;48.012;7.862;2022-09-09T11:47:37;24.50;99.90
12303;DHT22;6214;48.012;7.862;2022-09-09T11:52:44;24.20;99.90
12303;DHT22;6214;48.012;7.862;2022-09-09T11:58:03;24.20;99.90
12303;DHT22;6214;48.012;7.862;2022-09-09T12:00:42;24.00;99.90
12303;DHT22;6214;48.012;7.862;2022-09-09T12:06:26;23.30;99.90
12303;DHT22;6214;48.012;7.862;2022-09-09T12:08:58;23.20;99.90
12303;DHT22;6214;48.012;7.862;2022-09-09T12:11:33;23.40;99.90
12303;DHT22;6214;48.012;7.862;2022-09-09T12:14:01;23.90;99.90
12303;DHT22;6214;48.012;7.862;2022-09-09T12:16:34;24.20;99.90
12303;DHT22;6214;48.012;7.862;2022-09-09T12:19:20;24.20;99.90
12303;DHT22;6214;48.012;7.862;2022-09-09T12:22:06;24.20;99.90
12303;DHT22;6214;48.012;7.862;2022-09-09T12:27:34;24.20;99.90
12303;DHT22;6214;48.012;7.862;2022-09-09T12:30:10;24.40;99.90
12303;DHT22;6214;48.012;7.862;2022-09-09T12:32:38;24.40;99.90
12303;DHT22;6214;48.012;7.862;2022-09-09T12:35:21;24.30;99.90
12303;DHT22;6214;48.012;7.862;2022-09-09T12:37:52;24.30;99.90
12303;DHT22;6214;48.012;7.862;2022-09-09T12:40:29;24.30;99.90
12303;DHT22;6214;48.012;7.862;2022-09-09T12:42:56;24.50;99.90
12303;DHT22;6214;48.012;7.862;2022-09-09T12:45:25;24.70;99.90
12303;DHT22;6214;48.012;7.862;2022-09-09T12:48:02;24.80;99.90
12303;DHT22;6214;48.012;7.862;2022-09-09T12:50:33;24.90;99.90
12303;DHT22;6214;48.012;7.862;2022-09-09T12:53:07;24.90;99.90
12303;DHT22;6214;48.012;7.862;2022-09-09T12:55:38;24.70;99.90
12303;DHT22;6214;48.012;7.862;2022-09-09T12:58:06;24.50;99.90
12303;DHT22;6214;48.012;7.862;2022-09-09T13:00:34;24.40;99.90
12303;DHT22;6214;48.012;7.862;2022-09-09T13:03:13;24.20;99.90
12303;DHT22;6214;48.012;7.862;2022-09-09T13:05:42;24.00;99.90
12303;DHT22;6214;48.012;7.862;2022-09-09T13:08:11;23.80;99.90
12303;DHT22;6214;48.012;7.862;2022-09-09T13:10:49;23.80;99.90
12303;DHT22;6214;48.012;7.862;2022-09-09T13:13:31;23.70;99.90
12303;DHT22;6214;48.012;7.862;2022-09-09T13:16:01;23.50;99.90
12303;DHT22;6214;48.012;7.862;2022-09-09T13:18:36;23.60;99.90
12303;DHT22;6214;48.012;7.862;2022-09-09T13:21:04;23.40;99.90
12303;DHT22;6214;48.012;7.862;2022-09-09T13:23:34;23.20;99.90
12303;DHT22;6214;48.012;7.862;2022-09-09T13:26:04;23.20;99.90
12303;DHT22;6214;48.012;7.862;2022-09-09T13:28:33;22.90;99.90
12303;DHT22;6214;48.012;7.862;2022-09-09T13:31:19;22.70;99.90
12303;DHT22;6214;48.012;7.862;2022-09-09T13:33:46;22.60;99.90
12303;DHT22;6214;48.012;7.862;2022-09-09T13:36:13;22.50;99.90
12303;DHT22;6214;48.012;7.862;2022-09-09T13:38:57;22.70;99.90
12303;DHT22;6214;48.012;7.862;2022-09-09T13:41:42;22.50;99.90
12303;DHT22;6214;48.012;7.862;2022-09-09T13:49:36;22.00;99.90
12303;DHT22;6214;48.012;7.862;2022-09-09T13:54:34;22.20;99.90
12303;DHT22;6214;48.012;7.862;2022-09-09T13:57:02;22.30;99.90
12303;DHT22;6214;48.012;7.862;2022-09-09T13:59:31;22.30;99.90
12303;DHT22;6214;48.012;7.862;2022-09-09T14:02:18;22.40;99.90
12303;DHT22;6214;48.012;7.862;2022-09-09T14:04:46;22.40;99.90
12303;DHT22;6214;48.012;7.862;2022-09-09T14:07:15;22.30;99.90
12303;DHT22;6214;48.012;7.862;2022-09-09T14:09:43;22.30;99.90
12303;DHT22;6214;48.012;7.862;2022-09-09T14:12:13;22.30;99.90
12303;DHT22;6214;48.012;7.862;2022-09-09T14:14:42;22.40;99.90
12303;DHT22;6214;48.012;7.862;2022-09-09T14:17:09;22.40;99.90
12303;DHT22;6214;48.012;7.862;2022-09-09T14:19:36;22.60;99.90
12303;DHT22;6214;48.012;7.862;2022-09-09T14:22:06;22.80;99.90
12303;DHT22;6214;48.012;7.862;2022-09-09T14:24:33;22.90;99.90
12303;DHT22;6214;48.012;7.862;2022-09-09T14:27:00;23.00;99.90
12303;DHT22;6214;48.012;7.862;2022-09-09T14:29:27;23.10;99.90
12303;DHT22;6214;48.012;7.862;2022-09-09T14:31:54;23.20;99.90
12303;DHT22;6214;48.012;7.862;2022-09-09T14:34:22;23.20;99.90
12303;DHT22;6214;48.012;7.862;2022-09-09T14:36:48;23.40;99.90
12303;DHT22;6214;48.012;7.862;2022-09-09T14:39:17;23.40;99.90
12303;DHT22;6214;48.012;7.862;2022-09-09T14:41:44;23.40;99.90
12303;DHT22;6214;48.012;7.862;2022-09-09T14:44:12;23.40;99.90
12303;DHT22;6214;48.012;7.862;2022-09-09T14:46:39;23.30;99.90
12303;DHT22;6214;48.012;7.862;2022-09-09T14:49:06;23.10;99.90
12303;DHT22;6214;48.012;7.862;2022-09-09T14:51:33;23.10;99.90
12303;DHT22;6214;48.012;7.862;2022-09-09T14:54:00;23.10;99.90
12303;DHT22;6214;48.012;7.862;2022-09-09T14:56:31;23.10;99.90
12303;DHT22;6214;48.012;7.862;2022-09-09T14:59:01;23.20;99.90
12303;DHT22;6214;48.012;7.862;2022-09-09T15:01:29;23.40;99.90
12303;DHT22;6214;48.012;7.862;2022-09-09T15:03:58;23.30;99.90
12303;DHT22;6214;48.012;7.862;2022-09-09T15:06:28;23.20;99.90
12303;DHT22;6214;48.012;7.862;2022-09-09T15:08:56;23.20;99.90
12303;DHT22;6214;48.012;7.862;2022-09-09T15:11:28;23.10;99.90
12303;DHT22;6214;48.012;7.862;2022-09-09T15:13:57;23.20;99.90
12303;DHT22;6214;48.012;7.862;2022-09-09T15:16:27;23.20;99.90
12303;DHT22;6214;48.012;7.862;2022-09-09T15:18:56;23.00;99.90
12303;DHT22;6214;48.012;7.862;2022-09-09T15:21:26;22.90;99.90
12303;DHT22;6214;48.012;7.862;2022-09-09T15:23:53;23.00;99.90
12303;DHT22;6214;48.012;7.862;2022-09-09T15:26:21;23.00;99.90
12303;DHT22;6214;48.012;7.862;2022-09-09T15:28:48;23.10;99.90
12303;DHT22;6214;48.012;7.862;2022-09-09T15:31:20;23.00;99.90
12303;DHT22;6214;48.012;7.862;2022-09-09T15:33:51;22.80;99.90
12303;DHT22;6214;48.012;7.862;2022-09-09T15:36:23;22.70;99.90
12303;DHT22;6214;48.012;7.862;2022-09-09T15:38:51;22.70;99.90
12303;DHT22;6214;48.012;7.862;2022-09-09T15:41:21;22.60;99.90
12303;DHT22;6214;48.012;7.862;2022-09-09T15:43:50;22.60;99.90
12303;DHT22;6214;48.012;7.862;2022-09-09T15:48:45;22.60;99.90
12303;DHT22;6214;48.012;7.862;2022-09-09T15:51:15;22.70;99.90
12303;DHT22;6214;48.012;7.862;2022-09-09T15:54:02;22.70;99.90
12303;DHT22;6214;48.012;7.862;2022-09-09T15:56:30;22.70;99.90
12303;DHT22;6214;48.012;7.862;2022-09-09T15:58:58;22.80;99.90
12303;DHT22;6214;48.012;7.862;2022-09-09T16:01:29;22.70;99.90
12303;DHT22;6214;48.012;7.862;2022-09-09T16:03:58;22.70;99.90
12303;DHT22;6214;48.012;7.862;2022-09-09T16:06:26;22.60;99.90
12303;DHT22;6214;48.012;7.862;2022-09-09T16:08:57;22.70;99.90
12303;DHT22;6214;48.012;7.862;2022-09-09T16:11:30;22.60;99.90
12303;DHT22;6214;48.012;7.862;2022-09-09T16:13:59;22.60;99.90
12303;DHT22;6214;48.012;7.862;2022-09-09T16:16:29;22.60;99.90
12303;DHT22;6214;48.012;7.862;2022-09-09T16:19:08;22.30;99.90
12303;DHT22;6214;48.012;7.862;2022-09-09T16:21:47;22.20;99.90
12303;DHT22;6214;48.012;7.862;2022-09-09T16:24:17;22.00;99.90
12303;DHT22;6214;48.012;7.862;2022-09-09T16:26:51;21.70;99.90
12303;DHT22;6214;48.012;7.862;2022-09-09T16:29:19;21.60;99.90
12303;DHT22;6214;48.012;7.862;2022-09-09T16:31:49;21.30;99.90
12303;DHT22;6214;48.012;7.862;2022-09-09T16:34:18;20.90;99.90
12303;DHT22;6214;48.012;7.862;2022-09-09T16:36:47;20.80;99.90
12303;DHT22;6214;48.012;7.862;2022-09-09T16:39:19;20.70;99.90
12303;DHT22;6214;48.012;7.862;2022-09-09T16:41:47;20.50;99.90
12303;DHT22;6214;48.012;7.862;2022-09-09T16:44:16;20.70;99.90
12303;DHT22;6214;48.012;7.862;2022-09-09T16:46:46;20.80;99.90
12303;DHT22;6214;48.012;7.862;2022-09-09T16:49:15;20.90;99.90
12303;DHT22;6214;48.012;7.862;2022-09-09T16:51:48;21.00;99.90
12303;DHT22;6214;48.012;7.862;2022-09-09T16:54:16;21.00;99.90
12303;DHT22;6214;48.012;7.862;2022-09-09T16:56:45;20.90;99.90
12303;DHT22;6214;48.012;7.862;2022-09-09T16:59:15;20.70;99.90
12303;DHT22;6214;48.012;7.862;2022-09-09T17:01:43;20.70;99.90
12303;DHT22;6214;48.012;7.862;2022-09-09T17:04:14;20.60;99.90
12303;DHT22;6214;48.012;7.862;2022-09-09T17:06:46;20.40;99.90
12303;DHT22;6214;48.012;7.862;2022-09-09T17:09:13;20.30;99.90
12303;DHT22;6214;48.012;7.862;2022-09-09T17:11:40;20.20;99.90
12303;DHT22;6214;48.012;7.862;2022-09-09T17:14:11;20.20;99.90
12303;DHT22;6214;48.012;7.862;2022-09-09T17:16:39;20.10;99.90
12303;DHT22;6214;48.012;7.862;2022-09-09T17:19:06;20.00;99.90
12303;DHT22;6214;48.012;7.862;2022-09-09T17:21:36;20.10;99.90
12303;DHT22;6214;48.012;7.862;2022-09-09T17:24:23;20.00;99.90
12303;DHT22;6214;48.012;7.862;2022-09-09T17:26:52;20.00;99.90
12303;DHT22;6214;48.012;7.862;2022-09-09T17:29:21;19.90;99.90
12303;DHT22;6214;48.012;7.862;2022-09-09T17:31:48;20.00;99.90
12303;DHT22;6214;48.012;7.862;2022-09-09T17:34:15;20.00;99.90
12303;DHT22;6214;48.012;7.862;2022-09-09T17:36:42;20.00;99.90
12303;DHT22;6214;48.012;7.862;2022-09-09T17:39:09;20.10;99.90
12303;DHT22;6214;48.012;7.862;2022-09-09T17:41:37;20.10;99.90
12303;DHT22;6214;48.012;7.862;2022-09-09T17:44:06;20.10;99.90
12303;DHT22;6214;48.012;7.862;2022-09-09T17:46:40;20.00;99.90
12303;DHT22;6214;48.012;7.862;2022-09-09T17:49:10;19.90;99.90
12303;DHT22;6214;48.012;7.862;2022-09-09T17:51:39;19.80;99.90
12303;DHT22;6214;48.012;7.862;2022-09-09T17:54:16;19.80;99.90
12303;DHT22;6214;48.012;7.862;2022-09-09T17:56:45;19.80;99.90
12303;DHT22;6214;48.012;7.862;2022-09-09T17:59:13;19.70;99.90
12303;DHT22;6214;48.012;7.862;2022-09-09T18:01:43;19.70;99.90
12303;DHT22;6214;48.012;7.862;2022-09-09T18:04:13;19.80;99.90
12303;DHT22;6214;48.012;7.862;2022-09-09T18:06:43;19.70;99.90
12303;DHT22;6214;48.012;7.862;2022-09-09T18:09:21;19.80;99.90
12303;DHT22;6214;48.012;7.862;2022-09-09T18:11:55;19.80;99.90
12303;DHT22;6214;48.012;7.862;2022-09-09T18:14:25;19.80;99.90
12303;DHT22;6214;48.012;7.862;2022-09-09T18:16:53;19.80;99.90
12303;DHT22;6214;48.012;7.862;2022-09-09T18:19:22;19.80;99.90
12303;DHT22;6214;48.012;7.862;2022-09-09T18:21:50;19.70;99.90
12303;DHT22;6214;48.012;7.862;2022-09-09T18:24:18;19.80;99.90
12303;DHT22;6214;48.012;7.862;2022-09-09T18:26:47;19.80;99.90
12303;DHT22;6214;48.012;7.862;2022-09-09T18:29:17;19.90;99.90
12303;DHT22;6214;48.012;7.862;2022-09-09T18:31:46;19.90;99.90
12303;DHT22;6214;48.012;7.862;2022-09-09T18:34:16;19.80;99.90